Bouzas — EAPC — position and weather

sailwx.info

Track history (hours):
 
Tides and Currents Weather Stations Pressure Air Temp Water Temp Dewpoint Dewpoint Depression Visibility Wind Speed Wind Dir Waves Ship Positions

Bouzas

Last reported at 2014-Aug-30 04:08 UTC. Time now 2014-Aug-30 12:31 UTC.
Position N 37°13' W 001°04'.

Length 142 m; draft 5.7 m.

Type: Cargo ship. MMSI: 224029000.

Date/timePositionNaut miles runAvg speedWind from/ knotsBaromVisibWave heightAir tempDewpointWater temp
2014-Aug-30 04:08N 37°13' W 001°04'1219.9
2014-Aug-30 03:32N 37°21' W 000°53'1919.4
2014-Aug-30 02:33N 37°33' W 000°35'1919.2
2014-Aug-30 01:33N 37°49' W 000°21'3919.5
2014-Aug-29 23:33N 38°23' E 000°04'2619.1
2014-Aug-29 22:12N 38°43' E 000°24'2917.8
2014-Aug-29 20:33N 39°09' E 000°42'3919.1
2014-Aug-29 18:32N 39°43' E 001°06'1919.5
2014-Aug-29 17:33N 39°60' E 001°18'1919.5
2014-Aug-29 16:33N 40°17' E 001°30'2019.5
2014-Aug-29 15:33N 40°34' E 001°43'1919.1
2014-Aug-29 14:33N 40°51' E 001°55'1919.2
2014-Aug-29 13:33N 41°07' E 002°07'1514.4
2014-Aug-29 12:33N 41°22' E 002°11'0 0.1
2014-Aug-29 08:24N 41°22' E 002°11'0 0.0
2014-Aug-29 05:18N 41°22' E 002°11'0 0.0
2014-Aug-29 04:33N 41°22' E 002°11'7 7.0
2014-Aug-29 03:33N 41°17' E 002°17'1212.5
2014-Aug-29 02:33N 41°07' E 002°07'1413.7
2014-Aug-29 01:33N 40°54' E 001°59'1414.0
2014-Aug-29 00:33N 40°42' E 001°50'1414.0
2014-Aug-28 23:33N 40°30' E 001°41'1514.7
2014-Aug-28 22:30N 40°16' E 001°32'1111.7
2014-Aug-28 21:33N 40°06' E 001°25'1111.0
2014-Aug-28 20:33N 39°57' E 001°18'1312.6
2014-Aug-28 19:33N 39°45' E 001°11'2210.9
2014-Aug-28 17:33N 39°26' E 000°58'1313.3
2014-Aug-28 16:32N 39°14' E 000°50'1414.2
2014-Aug-28 15:31N 39°01' E 000°42'1413.9
2014-Aug-28 14:32N 38°49' E 000°33'1514.3
2014-Aug-28 13:31N 38°37' E 000°23'1414.0
2014-Aug-28 12:33N 38°26' E 000°13'2713.3
2014-Aug-28 10:33N 38°03' W 000°05'1913.1
2014-Aug-28 09:04N 37°47' W 000°19'713.4
2014-Aug-28 08:33N 37°42' W 000°24'1313.4
2014-Aug-28 07:33N 37°31' W 000°35'1312.9
2014-Aug-28 06:33N 37°22' W 000°46'1818.1
2014-Aug-28 05:32N 37°10' W 001°04'2218.2
2014-Aug-28 04:19N 36°56' W 001°24'3418.3
2014-Aug-28 02:27N 36°33' W 001°56'16919.0
2014-Aug-27 17:33N 35°59' W 005°21'  
Track history (hours):
 
Tides and Currents Weather Stations Pressure Air Temp Water Temp Dewpoint Dewpoint Depression Visibility Wind Speed Wind Dir Waves Ship Positions

Bouzas

Last reported at 2014-Aug-30 04:08 UTC. Time now 2014-Aug-30 12:31 UTC.
Position N 37°13' W 001°04'.

Length 142 m; draft 5.7 m.

Type: Cargo ship. MMSI: 224029000.

Date/timePositionNaut miles runAvg speedWind from/ knotsBaromVisibWave heightAir tempDewpointWater temp
2014-Aug-30 04:08N 37°13' W 001°04'1219.9
2014-Aug-30 03:32N 37°21' W 000°53'1919.4
2014-Aug-30 02:33N 37°33' W 000°35'1919.2
2014-Aug-30 01:33N 37°49' W 000°21'3919.5
2014-Aug-29 23:33N 38°23' E 000°04'2619.1
2014-Aug-29 22:12N 38°43' E 000°24'2917.8
2014-Aug-29 20:33N 39°09' E 000°42'3919.1
2014-Aug-29 18:32N 39°43' E 001°06'1919.5
2014-Aug-29 17:33N 39°60' E 001°18'1919.5
2014-Aug-29 16:33N 40°17' E 001°30'2019.5
2014-Aug-29 15:33N 40°34' E 001°43'1919.1
2014-Aug-29 14:33N 40°51' E 001°55'1919.2
2014-Aug-29 13:33N 41°07' E 002°07'1514.4
2014-Aug-29 12:33N 41°22' E 002°11'0 0.1
2014-Aug-29 08:24N 41°22' E 002°11'0 0.0
2014-Aug-29 05:18N 41°22' E 002°11'0 0.0
2014-Aug-29 04:33N 41°22' E 002°11'7 7.0
2014-Aug-29 03:33N 41°17' E 002°17'1212.5
2014-Aug-29 02:33N 41°07' E 002°07'1413.7
2014-Aug-29 01:33N 40°54' E 001°59'1414.0
2014-Aug-29 00:33N 40°42' E 001°50'1414.0
2014-Aug-28 23:33N 40°30' E 001°41'1514.7
2014-Aug-28 22:30N 40°16' E 001°32'1111.7
2014-Aug-28 21:33N 40°06' E 001°25'1111.0
2014-Aug-28 20:33N 39°57' E 001°18'1312.6
2014-Aug-28 19:33N 39°45' E 001°11'2210.9
2014-Aug-28 17:33N 39°26' E 000°58'1313.3
2014-Aug-28 16:32N 39°14' E 000°50'1414.2
2014-Aug-28 15:31N 39°01' E 000°42'1413.9
2014-Aug-28 14:32N 38°49' E 000°33'1514.3
2014-Aug-28 13:31N 38°37' E 000°23'1414.0
2014-Aug-28 12:33N 38°26' E 000°13'2713.3
2014-Aug-28 10:33N 38°03' W 000°05'1913.1
2014-Aug-28 09:04N 37°47' W 000°19'713.4
2014-Aug-28 08:33N 37°42' W 000°24'1313.4
2014-Aug-28 07:33N 37°31' W 000°35'1312.9
2014-Aug-28 06:33N 37°22' W 000°46'1818.1
2014-Aug-28 05:32N 37°10' W 001°04'2218.2
2014-Aug-28 04:19N 36°56' W 001°24'3418.3
2014-Aug-28 02:27N 36°33' W 001°56'16919.0
2014-Aug-27 17:33N 35°59' W 005°21'  

Dump ship's entire track history